sensor_id;sensor_type;location;lat;lon;timestamp;temperature;humidity
20598;DHT22;10457;48.770;11.446;2022-12-16T00:00:50;-0.70;99.90
20598;DHT22;10457;48.770;11.446;2022-12-16T00:06:12;-0.70;99.90
20598;DHT22;10457;48.770;11.446;2022-12-16T00:11:34;-0.70;99.90
20598;DHT22;10457;48.770;11.446;2022-12-16T00:16:57;-0.70;99.90
20598;DHT22;10457;48.770;11.446;2022-12-16T00:22:18;-0.70;99.90
20598;DHT22;10457;48.770;11.446;2022-12-16T00:27:40;-0.60;99.90
20598;DHT22;10457;48.770;11.446;2022-12-16T00:33:02;-0.80;99.90
20598;DHT22;10457;48.770;11.446;2022-12-16T00:38:25;-0.70;99.90
20598;DHT22;10457;48.770;11.446;2022-12-16T00:43:47;-0.70;99.90
20598;DHT22;10457;48.770;11.446;2022-12-16T00:49:10;-0.70;99.90
20598;DHT22;10457;48.770;11.446;2022-12-16T00:54:31;-0.70;99.90
20598;DHT22;10457;48.770;11.446;2022-12-16T00:59:52;-0.80;99.90
20598;DHT22;10457;48.770;11.446;2022-12-16T01:05:17;-0.90;99.90
20598;DHT22;10457;48.770;11.446;2022-12-16T01:10:40;-0.90;99.90
20598;DHT22;10457;48.770;11.446;2022-12-16T01:16:02;-0.90;99.90
20598;DHT22;10457;48.770;11.446;2022-12-16T01:21:25;-0.80;99.90
20598;DHT22;10457;48.770;11.446;2022-12-16T01:26:46;-0.80;99.90
20598;DHT22;10457;48.770;11.446;2022-12-16T01:32:08;-0.90;99.90
20598;DHT22;10457;48.770;11.446;2022-12-16T01:37:33;-0.80;99.90
20598;DHT22;10457;48.770;11.446;2022-12-16T01:42:55;-0.80;99.90
20598;DHT22;10457;48.770;11.446;2022-12-16T01:48:21;-0.70;99.90
20598;DHT22;10457;48.770;11.446;2022-12-16T01:53:54;-0.80;99.90
20598;DHT22;10457;48.770;11.446;2022-12-16T01:59:17;-0.90;99.90
20598;DHT22;10457;48.770;11.446;2022-12-16T02:04:40;-0.80;99.90
20598;DHT22;10457;48.770;11.446;2022-12-16T02:10:30;-0.80;99.90
20598;DHT22;10457;48.770;11.446;2022-12-16T02:16:04;-0.80;99.90
20598;DHT22;10457;48.770;11.446;2022-12-16T02:21:41;-0.80;99.90
20598;DHT22;10457;48.770;11.446;2022-12-16T02:39:24;-0.80;99.90
20598;DHT22;10457;48.770;11.446;2022-12-16T02:44:54;-0.80;99.90
20598;DHT22;10457;48.770;11.446;2022-12-16T02:50:22;-0.70;99.90
20598;DHT22;10457;48.770;11.446;2022-12-16T02:55:52;-0.50;99.90
20598;DHT22;10457;48.770;11.446;2022-12-16T03:01:20;-0.60;99.90
20598;DHT22;10457;48.770;11.446;2022-12-16T03:06:48;-0.70;99.90
20598;DHT22;10457;48.770;11.446;2022-12-16T03:12:13;-0.70;99.90
20598;DHT22;10457;48.770;11.446;2022-12-16T03:17:37;-0.70;99.90
20598;DHT22;10457;48.770;11.446;2022-12-16T03:23:02;-0.70;99.90
20598;DHT22;10457;48.770;11.446;2022-12-16T03:28:33;-0.70;99.90
20598;DHT22;10457;48.770;11.446;2022-12-16T03:34:04;-0.70;99.90
20598;DHT22;10457;48.770;11.446;2022-12-16T03:39:32;-0.80;99.90
20598;DHT22;10457;48.770;11.446;2022-12-16T03:44:58;-0.80;99.90
20598;DHT22;10457;48.770;11.446;2022-12-16T03:50:24;-0.80;99.90
20598;DHT22;10457;48.770;11.446;2022-12-16T03:55:48;-0.70;99.90
20598;DHT22;10457;48.770;11.446;2022-12-16T04:01:10;-0.80;99.90
20598;DHT22;10457;48.770;11.446;2022-12-16T04:06:31;-0.90;99.90
20598;DHT22;10457;48.770;11.446;2022-12-16T04:11:54;-0.90;99.90
20598;DHT22;10457;48.770;11.446;2022-12-16T04:17:33;-0.80;99.90
20598;DHT22;10457;48.770;11.446;2022-12-16T04:23:12;-0.90;99.90
20598;DHT22;10457;48.770;11.446;2022-12-16T04:29:04;-0.90;99.90
20598;DHT22;10457;48.770;11.446;2022-12-16T04:34:26;-1.00;99.90
20598;DHT22;10457;48.770;11.446;2022-12-16T04:39:48;-1.00;99.90
20598;DHT22;10457;48.770;11.446;2022-12-16T04:45:28;-1.00;99.90
20598;DHT22;10457;48.770;11.446;2022-12-16T04:51:07;-0.90;99.90
20598;DHT22;10457;48.770;11.446;2022-12-16T04:56:45;-0.90;99.90
20598;DHT22;10457;48.770;11.446;2022-12-16T05:02:26;-1.00;99.90
20598;DHT22;10457;48.770;11.446;2022-12-16T05:08:04;-1.00;99.90
20598;DHT22;10457;48.770;11.446;2022-12-16T05:13:43;-1.00;99.90
20598;DHT22;10457;48.770;11.446;2022-12-16T05:19:24;-1.10;99.90
20598;DHT22;10457;48.770;11.446;2022-12-16T05:25:03;-1.10;99.90
20598;DHT22;10457;48.770;11.446;2022-12-16T05:30:42;-1.10;99.90
20598;DHT22;10457;48.770;11.446;2022-12-16T05:36:23;-1.10;99.90
20598;DHT22;10457;48.770;11.446;2022-12-16T05:42:02;-1.00;99.90
20598;DHT22;10457;48.770;11.446;2022-12-16T05:47:41;-1.00;99.90
20598;DHT22;10457;48.770;11.446;2022-12-16T05:53:21;-1.00;99.90
20598;DHT22;10457;48.770;11.446;2022-12-16T05:59:00;-1.10;99.90
20598;DHT22;10457;48.770;11.446;2022-12-16T06:04:39;-1.10;99.90
20598;DHT22;10457;48.770;11.446;2022-12-16T06:10:19;-1.10;99.90
20598;DHT22;10457;48.770;11.446;2022-12-16T06:15:58;-1.10;99.90
20598;DHT22;10457;48.770;11.446;2022-12-16T06:21:37;-1.10;99.90
20598;DHT22;10457;48.770;11.446;2022-12-16T06:27:17;-1.10;99.90
20598;DHT22;10457;48.770;11.446;2022-12-16T06:32:55;-1.20;99.90
20598;DHT22;10457;48.770;11.446;2022-12-16T06:38:34;-1.20;99.90
20598;DHT22;10457;48.770;11.446;2022-12-16T06:44:15;-1.20;99.90
20598;DHT22;10457;48.770;11.446;2022-12-16T06:49:53;-1.30;99.90
20598;DHT22;10457;48.770;11.446;2022-12-16T06:55:32;-1.30;99.90
20598;DHT22;10457;48.770;11.446;2022-12-16T07:01:12;-1.30;99.90
20598;DHT22;10457;48.770;11.446;2022-12-16T07:06:51;-1.20;99.90
20598;DHT22;10457;48.770;11.446;2022-12-16T07:12:30;-1.20;99.90
20598;DHT22;10457;48.770;11.446;2022-12-16T07:18:10;-1.10;99.90
20598;DHT22;10457;48.770;11.446;2022-12-16T07:23:49;-1.20;99.90
20598;DHT22;10457;48.770;11.446;2022-12-16T07:29:28;-1.10;99.90
20598;DHT22;10457;48.770;11.446;2022-12-16T07:35:08;-1.20;99.90
20598;DHT22;10457;48.770;11.446;2022-12-16T07:40:47;-1.10;99.90
20598;DHT22;10457;48.770;11.446;2022-12-16T07:46:26;-1.10;99.90
20598;DHT22;10457;48.770;11.446;2022-12-16T07:52:06;-1.20;99.90
20598;DHT22;10457;48.770;11.446;2022-12-16T07:57:48;-1.20;99.90
20598;DHT22;10457;48.770;11.446;2022-12-16T08:03:27;-1.10;99.90
20598;DHT22;10457;48.770;11.446;2022-12-16T08:09:07;-1.20;99.90
20598;DHT22;10457;48.770;11.446;2022-12-16T08:14:46;-1.10;99.90
20598;DHT22;10457;48.770;11.446;2022-12-16T08:20:25;-1.10;99.90
20598;DHT22;10457;48.770;11.446;2022-12-16T08:26:05;-1.10;99.90
20598;DHT22;10457;48.770;11.446;2022-12-16T08:31:44;-1.00;99.90
20598;DHT22;10457;48.770;11.446;2022-12-16T08:37:23;-0.90;99.80
20598;DHT22;10457;48.770;11.446;2022-12-16T08:43:03;-0.80;98.70
20598;DHT22;10457;48.770;11.446;2022-12-16T08:48:42;-0.70;99.90
20598;DHT22;10457;48.770;11.446;2022-12-16T08:54:21;-0.40;97.70
20598;DHT22;10457;48.770;11.446;2022-12-16T09:00:02;-0.40;96.20
20598;DHT22;10457;48.770;11.446;2022-12-16T09:05:41;-0.30;95.10
20598;DHT22;10457;48.770;11.446;2022-12-16T09:11:20;-0.20;93.30
20598;DHT22;10457;48.770;11.446;2022-12-16T09:16:59;-0.30;94.30
20598;DHT22;10457;48.770;11.446;2022-12-16T09:22:38;-0.10;93.60
20598;DHT22;10457;48.770;11.446;2022-12-16T09:28:17;-0.10;94.40
20598;DHT22;10457;48.770;11.446;2022-12-16T09:33:57;-0.30;92.10
20598;DHT22;10457;48.770;11.446;2022-12-16T09:39:35;-0.30;93.00
20598;DHT22;10457;48.770;11.446;2022-12-16T09:45:21;0.00;91.40
20598;DHT22;10457;48.770;11.446;2022-12-16T09:51:13;-0.20;93.50
20598;DHT22;10457;48.770;11.446;2022-12-16T09:56:55;0.00;91.10
20598;DHT22;10457;48.770;11.446;2022-12-16T10:02:34;0.00;90.10
20598;DHT22;10457;48.770;11.446;2022-12-16T10:08:19;-0.10;89.40
20598;DHT22;10457;48.770;11.446;2022-12-16T10:14:04;-0.20;90.90
20598;DHT22;10457;48.770;11.446;2022-12-16T10:19:50;-0.10;91.30
20598;DHT22;10457;48.770;11.446;2022-12-16T10:25:38;0.00;90.80
20598;DHT22;10457;48.770;11.446;2022-12-16T10:31:19;0.00;88.30
20598;DHT22;10457;48.770;11.446;2022-12-16T10:36:59;0.00;89.40
20598;DHT22;10457;48.770;11.446;2022-12-16T10:42:46;0.10;89.10
20598;DHT22;10457;48.770;11.446;2022-12-16T10:48:27;0.30;88.70
20598;DHT22;10457;48.770;11.446;2022-12-16T10:54:29;0.50;87.50
20598;DHT22;10457;48.770;11.446;2022-12-16T11:00:15;0.30;87.30
20598;DHT22;10457;48.770;11.446;2022-12-16T11:05:59;0.10;89.80
20598;DHT22;10457;48.770;11.446;2022-12-16T11:11:39;0.20;90.90
20598;DHT22;10457;48.770;11.446;2022-12-16T11:17:21;0.10;92.90
20598;DHT22;10457;48.770;11.446;2022-12-16T11:23:18;0.20;94.20
20598;DHT22;10457;48.770;11.446;2022-12-16T11:29:03;0.40;93.50
20598;DHT22;10457;48.770;11.446;2022-12-16T11:34:49;0.60;93.40
20598;DHT22;10457;48.770;11.446;2022-12-16T11:40:30;0.50;91.30
20598;DHT22;10457;48.770;11.446;2022-12-16T11:46:11;0.60;92.60
20598;DHT22;10457;48.770;11.446;2022-12-16T11:51:56;0.50;91.10
20598;DHT22;10457;48.770;11.446;2022-12-16T11:57:42;0.40;93.70
20598;DHT22;10457;48.770;11.446;2022-12-16T12:03:24;0.30;96.50
20598;DHT22;10457;48.770;11.446;2022-12-16T12:09:08;0.30;96.10
20598;DHT22;10457;48.770;11.446;2022-12-16T12:14:54;0.30;98.30
20598;DHT22;10457;48.770;11.446;2022-12-16T12:20:43;0.40;96.30
20598;DHT22;10457;48.770;11.446;2022-12-16T12:26:29;0.50;95.40
20598;DHT22;10457;48.770;11.446;2022-12-16T12:32:18;0.50;96.90
20598;DHT22;10457;48.770;11.446;2022-12-16T12:38:08;0.40;97.30
20598;DHT22;10457;48.770;11.446;2022-12-16T12:43:56;0.40;97.50
20598;DHT22;10457;48.770;11.446;2022-12-16T12:49:44;0.40;96.30
20598;DHT22;10457;48.770;11.446;2022-12-16T12:55:33;0.50;96.10
20598;DHT22;10457;48.770;11.446;2022-12-16T13:01:21;0.30;96.80
20598;DHT22;10457;48.770;11.446;2022-12-16T13:07:03;0.30;95.30
20598;DHT22;10457;48.770;11.446;2022-12-16T13:25:33;0.20;99.20
20598;DHT22;10457;48.770;11.446;2022-12-16T13:31:16;0.20;98.70
20598;DHT22;10457;48.770;11.446;2022-12-16T13:36:57;0.30;99.90
20598;DHT22;10457;48.770;11.446;2022-12-16T13:42:51;0.40;98.40
20598;DHT22;10457;48.770;11.446;2022-12-16T13:48:37;0.40;99.30
20598;DHT22;10457;48.770;11.446;2022-12-16T13:54:18;0.50;98.80
20598;DHT22;10457;48.770;11.446;2022-12-16T14:00:03;0.50;95.50
20598;DHT22;10457;48.770;11.446;2022-12-16T14:05:43;0.30;95.80
20598;DHT22;10457;48.770;11.446;2022-12-16T14:11:29;0.30;96.70
20598;DHT22;10457;48.770;11.446;2022-12-16T14:17:17;0.30;97.40
20598;DHT22;10457;48.770;11.446;2022-12-16T14:23:02;0.30;96.60
20598;DHT22;10457;48.770;11.446;2022-12-16T14:28:49;0.30;94.60
20598;DHT22;10457;48.770;11.446;2022-12-16T14:34:36;0.20;93.20
20598;DHT22;10457;48.770;11.446;2022-12-16T14:40:19;0.10;93.80
20598;DHT22;10457;48.770;11.446;2022-12-16T14:46:00;0.10;94.30
20598;DHT22;10457;48.770;11.446;2022-12-16T14:51:45;0.00;94.10
20598;DHT22;10457;48.770;11.446;2022-12-16T14:57:26;-0.20;95.40
20598;DHT22;10457;48.770;11.446;2022-12-16T15:03:12;-0.20;96.20
20598;DHT22;10457;48.770;11.446;2022-12-16T15:08:56;-0.20;95.40
20598;DHT22;10457;48.770;11.446;2022-12-16T15:14:40;-0.20;95.00
20598;DHT22;10457;48.770;11.446;2022-12-16T15:20:25;-0.30;95.70
20598;DHT22;10457;48.770;11.446;2022-12-16T15:26:01;-0.30;95.80
20598;DHT22;10457;48.770;11.446;2022-12-16T15:31:40;-0.30;95.00
20598;DHT22;10457;48.770;11.446;2022-12-16T15:37:27;-0.30;95.30
20598;DHT22;10457;48.770;11.446;2022-12-16T15:43:20;-0.30;95.90
20598;DHT22;10457;48.770;11.446;2022-12-16T15:49:05;-0.30;96.90
20598;DHT22;10457;48.770;11.446;2022-12-16T15:54:53;-0.30;96.60
20598;DHT22;10457;48.770;11.446;2022-12-16T16:00:31;-0.50;97.90
20598;DHT22;10457;48.770;11.446;2022-12-16T16:06:15;-0.50;98.80
20598;DHT22;10457;48.770;11.446;2022-12-16T16:11:56;-0.50;98.50
20598;DHT22;10457;48.770;11.446;2022-12-16T16:17:35;-0.60;98.90
20598;DHT22;10457;48.770;11.446;2022-12-16T16:23:14;-0.60;99.90
20598;DHT22;10457;48.770;11.446;2022-12-16T16:28:54;-0.60;99.90
20598;DHT22;10457;48.770;11.446;2022-12-16T16:34:33;-0.70;99.90
20598;DHT22;10457;48.770;11.446;2022-12-16T16:40:17;-0.60;98.90
20598;DHT22;10457;48.770;11.446;2022-12-16T16:45:59;-0.70;99.00
20598;DHT22;10457;48.770;11.446;2022-12-16T16:51:46;-0.70;99.90
20598;DHT22;10457;48.770;11.446;2022-12-16T16:57:26;-0.80;99.90
20598;DHT22;10457;48.770;11.446;2022-12-16T17:03:10;-0.80;99.90
20598;DHT22;10457;48.770;11.446;2022-12-16T17:08:49;-0.80;99.90
20598;DHT22;10457;48.770;11.446;2022-12-16T17:14:40;-0.90;99.90
20598;DHT22;10457;48.770;11.446;2022-12-16T17:20:20;-0.80;96.60
20598;DHT22;10457;48.770;11.446;2022-12-16T17:25:58;-0.90;95.50
20598;DHT22;10457;48.770;11.446;2022-12-16T17:31:42;-1.10;96.90
20598;DHT22;10457;48.770;11.446;2022-12-16T17:37:23;-1.10;96.50
20598;DHT22;10457;48.770;11.446;2022-12-16T17:43:01;-1.10;96.90
20598;DHT22;10457;48.770;11.446;2022-12-16T17:48:40;-1.10;96.30
20598;DHT22;10457;48.770;11.446;2022-12-16T17:54:20;-1.20;96.70
20598;DHT22;10457;48.770;11.446;2022-12-16T17:59:59;-1.20;96.40
20598;DHT22;10457;48.770;11.446;2022-12-16T18:05:38;-1.20;95.10
20598;DHT22;10457;48.770;11.446;2022-12-16T18:11:27;-1.20;95.20
20598;DHT22;10457;48.770;11.446;2022-12-16T18:17:06;-1.20;95.10
20598;DHT22;10457;48.770;11.446;2022-12-16T18:22:45;-1.20;96.30
20598;DHT22;10457;48.770;11.446;2022-12-16T18:28:25;-1.30;95.50
20598;DHT22;10457;48.770;11.446;2022-12-16T18:34:04;-1.30;95.80
20598;DHT22;10457;48.770;11.446;2022-12-16T18:39:52;-1.20;95.50
20598;DHT22;10457;48.770;11.446;2022-12-16T18:45:32;-1.40;95.40
20598;DHT22;10457;48.770;11.446;2022-12-16T18:51:11;-1.40;95.50
20598;DHT22;10457;48.770;11.446;2022-12-16T18:56:50;-1.20;94.30
20598;DHT22;10457;48.770;11.446;2022-12-16T19:02:26;-1.30;92.80
20598;DHT22;10457;48.770;11.446;2022-12-16T19:08:05;-1.30;94.40
20598;DHT22;10457;48.770;11.446;2022-12-16T19:13:43;-1.30;94.90
20598;DHT22;10457;48.770;11.446;2022-12-16T19:19:24;-1.40;94.40
20598;DHT22;10457;48.770;11.446;2022-12-16T19:25:03;-1.40;95.80
20598;DHT22;10457;48.770;11.446;2022-12-16T19:30:43;-1.40;94.80
20598;DHT22;10457;48.770;11.446;2022-12-16T19:36:32;-1.50;93.80
20598;DHT22;10457;48.770;11.446;2022-12-16T19:42:11;-1.40;94.50
20598;DHT22;10457;48.770;11.446;2022-12-16T19:47:51;-1.40;95.40
20598;DHT22;10457;48.770;11.446;2022-12-16T19:53:38;-1.30;93.80
20598;DHT22;10457;48.770;11.446;2022-12-16T19:59:18;-1.30;91.20
20598;DHT22;10457;48.770;11.446;2022-12-16T20:04:57;-1.40;91.30
20598;DHT22;10457;48.770;11.446;2022-12-16T20:10:37;-1.40;90.90
20598;DHT22;10457;48.770;11.446;2022-12-16T20:16:16;-1.50;90.40
20598;DHT22;10457;48.770;11.446;2022-12-16T20:21:55;-1.60;93.40
20598;DHT22;10457;48.770;11.446;2022-12-16T20:27:35;-1.60;94.10
20598;DHT22;10457;48.770;11.446;2022-12-16T20:33:14;-1.60;92.30
20598;DHT22;10457;48.770;11.446;2022-12-16T20:38:53;-1.50;92.50
20598;DHT22;10457;48.770;11.446;2022-12-16T20:44:34;-1.50;90.90
20598;DHT22;10457;48.770;11.446;2022-12-16T20:50:12;-1.50;92.90
20598;DHT22;10457;48.770;11.446;2022-12-16T20:55:51;-1.50;92.10
20598;DHT22;10457;48.770;11.446;2022-12-16T21:01:31;-1.60;92.90
20598;DHT22;10457;48.770;11.446;2022-12-16T21:07:22;-1.50;93.00
20598;DHT22;10457;48.770;11.446;2022-12-16T21:13:05;-1.50;92.00
20598;DHT22;10457;48.770;11.446;2022-12-16T21:18:51;-1.60;91.70
20598;DHT22;10457;48.770;11.446;2022-12-16T21:24:30;-1.60;91.90
20598;DHT22;10457;48.770;11.446;2022-12-16T21:30:09;-1.60;90.10
20598;DHT22;10457;48.770;11.446;2022-12-16T21:35:52;-1.60;90.50
20598;DHT22;10457;48.770;11.446;2022-12-16T21:41:31;-1.70;90.70
20598;DHT22;10457;48.770;11.446;2022-12-16T21:47:09;-1.80;90.70
20598;DHT22;10457;48.770;11.446;2022-12-16T21:52:50;-1.80;91.10
20598;DHT22;10457;48.770;11.446;2022-12-16T21:58:28;-1.70;90.20
20598;DHT22;10457;48.770;11.446;2022-12-16T22:04:08;-1.80;89.80
20598;DHT22;10457;48.770;11.446;2022-12-16T22:09:48;-1.90;89.50
20598;DHT22;10457;48.770;11.446;2022-12-16T22:15:27;-1.80;89.80
20598;DHT22;10457;48.770;11.446;2022-12-16T22:21:06;-1.90;88.70
20598;DHT22;10457;48.770;11.446;2022-12-16T22:26:46;-2.00;88.50
20598;DHT22;10457;48.770;11.446;2022-12-16T22:32:25;-1.90;90.00
20598;DHT22;10457;48.770;11.446;2022-12-16T22:38:04;-1.90;90.00
20598;DHT22;10457;48.770;11.446;2022-12-16T22:43:44;-2.00;88.80
20598;DHT22;10457;48.770;11.446;2022-12-16T22:49:23;-2.00;88.50
20598;DHT22;10457;48.770;11.446;2022-12-16T22:55:08;-2.10;88.60
20598;DHT22;10457;48.770;11.446;2022-12-16T23:00:50;-2.10;88.10
20598;DHT22;10457;48.770;11.446;2022-12-16T23:06:29;-2.10;87.90
20598;DHT22;10457;48.770;11.446;2022-12-16T23:12:08;-2.20;87.50
20598;DHT22;10457;48.770;11.446;2022-12-16T23:17:48;-2.20;87.40
20598;DHT22;10457;48.770;11.446;2022-12-16T23:23:27;-2.20;88.20
20598;DHT22;10457;48.770;11.446;2022-12-16T23:29:07;-2.20;88.10
20598;DHT22;10457;48.770;11.446;2022-12-16T23:34:52;-2.30;87.30
20598;DHT22;10457;48.770;11.446;2022-12-16T23:40:31;-2.30;88.60
20598;DHT22;10457;48.770;11.446;2022-12-16T23:46:13;-2.30;89.00
20598;DHT22;10457;48.770;11.446;2022-12-16T23:51:53;-2.30;88.50
20598;DHT22;10457;48.770;11.446;2022-12-16T23:57:32;-2.40;87.80
